Time;durP1;ratioP1;P1;durP2;ratioP2;P2;SDS_P1;SDS_P2;PMS_P1;PMS_P2;Temp;Humidity;BMP_temperature;BMP_pressure;BME280_temperature;BME280_humidity;BME280_pressure;Samples;Min_cycle;Max_cycle;Signal;HPM_P1;HPM_P2
2022/05/01 00:01:53;;;;;;;1.95;1.50;;;18.80;43.90;;;;;;5052721;28;20189;-83
2022/05/01 00:04:19;;;;;;;1.58;1.42;;;18.80;43.90;;;;;;5034272;28;20250;-84
2022/05/01 00:06:49;;;;;;;1.52;1.42;;;18.80;44.00;;;;;;5035080;28;20662;-85
2022/05/01 00:09:14;;;;;;;2.17;1.30;;;18.80;43.90;;;;;;5034356;28;20186;-82
2022/05/01 00:11:41;;;;;;;1.33;1.23;;;18.80;43.90;;;;;;5051476;28;20157;-82
2022/05/01 00:14:11;;;;;;;1.67;1.10;;;18.80;44.00;;;;;;5051410;28;20150;-86
2022/05/01 00:16:37;;;;;;;2.08;1.48;;;18.80;44.00;;;;;;5034151;28;20556;-88
2022/05/01 00:19:03;;;;;;;1.52;1.30;;;18.80;44.10;;;;;;5034629;28;20166;-84
2022/05/01 00:21:29;;;;;;;2.15;1.38;;;18.80;44.10;;;;;;5052565;28;20241;-83
2022/05/01 00:23:55;;;;;;;1.60;1.40;;;18.80;44.00;;;;;;5036188;28;20170;-84
2022/05/01 00:26:21;;;;;;;1.40;1.30;;;18.80;44.10;;;;;;5038189;28;20212;-83
2022/05/01 00:28:51;;;;;;;1.50;1.40;;;18.80;44.00;;;;;;5056216;28;20643;-83
2022/05/01 00:31:16;;;;;;;1.25;1.05;;;18.70;44.10;;;;;;5037783;28;20194;-84
2022/05/01 00:36:26;;;;;;;1.48;1.38;;;18.80;44.10;;;;;;5055194;28;20154;-87
2022/05/01 00:39:02;;;;;;;2.10;1.13;;;18.70;44.10;;;;;;5021586;28;20186;-87
2022/05/01 00:41:33;;;;;;;1.70;1.60;;;18.80;44.10;;;;;;5054610;28;20185;-82
2022/05/01 00:44:04;;;;;;;1.55;1.45;;;18.80;44.20;;;;;;5021075;28;20178;-83
2022/05/01 00:46:36;;;;;;;1.80;1.35;;;18.70;44.30;;;;;;5037835;28;20243;-84
2022/05/01 00:49:02;;;;;;;1.65;1.40;;;18.70;44.00;;;;;;5021111;28;20177;-85
2022/05/01 00:51:30;;;;;;;2.17;1.70;;;18.70;44.30;;;;;;5038359;28;20613;-84
2022/05/01 00:53:56;;;;;;;2.30;1.50;;;18.70;44.30;;;;;;5054420;28;20581;-85
2022/05/01 00:56:22;;;;;;;1.83;1.55;;;18.70;44.20;;;;;;5054415;28;20170;-85
2022/05/01 00:58:48;;;;;;;1.60;1.40;;;18.70;44.40;;;;;;5037598;28;20248;-86
2022/05/01 01:01:15;;;;;;;1.80;1.40;;;18.70;44.20;;;;;;5054543;28;20182;-84
2022/05/01 01:03:40;;;;;;;1.95;1.70;;;18.70;44.20;;;;;;5054067;28;20213;-87
2022/05/01 01:06:10;;;;;;;2.35;1.40;;;18.70;44.30;;;;;;5037536;28;20172;-85
2022/05/01 01:08:36;;;;;;;2.42;1.52;;;18.70;44.40;;;;;;5037211;28;20185;-82
2022/05/01 01:11:02;;;;;;;2.38;1.70;;;18.70;44.20;;;;;;5037329;28;20178;-86
2022/05/01 01:13:28;;;;;;;1.50;1.40;;;18.70;44.30;;;;;;5055278;28;20162;-84
2022/05/01 01:15:55;;;;;;;1.83;1.48;;;18.70;44.40;;;;;;5054051;28;20166;-84
2022/05/01 01:18:22;;;;;;;1.90;1.48;;;18.60;44.30;;;;;;5053873;28;20159;-84
2022/05/01 01:20:52;;;;;;;1.80;1.52;;;18.70;44.40;;;;;;5054021;28;20209;-84
2022/05/01 01:23:17;;;;;;;1.50;1.30;;;18.70;44.40;;;;;;5036811;28;20266;-85
2022/05/01 01:25:48;;;;;;;1.48;1.38;;;18.70;44.30;;;;;;5053745;28;20182;-84
2022/05/01 01:28:18;;;;;;;2.95;1.45;;;18.70;44.40;;;;;;5020312;28;20237;-84
2022/05/01 01:33:21;;;;;;;1.33;1.23;;;18.70;44.40;;;;;;5053865;28;20161;-83
2022/05/01 01:35:52;;;;;;;2.10;1.30;;;18.70;44.40;;;;;;5036531;28;20170;-86
2022/05/01 01:38:18;;;;;;;1.55;1.30;;;18.70;44.40;;;;;;5003384;28;20267;-84
2022/05/01 01:40:48;;;;;;;2.10;1.50;;;18.70;44.40;;;;;;5036910;28;20193;-86
2022/05/01 01:43:18;;;;;;;1.73;1.50;;;18.70;44.50;;;;;;5053480;28;20177;-85
2022/05/01 01:45:44;;;;;;;1.48;1.38;;;18.70;44.60;;;;;;5054706;28;20174;-86
2022/05/01 01:48:16;;;;;;;1.80;1.70;;;18.60;44.40;;;;;;5053555;28;20672;-83
2022/05/01 01:50:42;;;;;;;1.83;1.35;;;18.70;44.50;;;;;;5053628;28;20208;-87
2022/05/01 01:53:10;;;;;;;1.80;1.70;;;18.70;44.40;;;;;;5036545;28;20174;-84
2022/05/01 01:55:37;;;;;;;2.42;1.67;;;18.70;44.40;;;;;;5036577;28;20178;-86
2022/05/01 01:58:03;;;;;;;2.67;1.55;;;18.70;44.50;;;;;;5053429;28;20519;-84
2022/05/01 02:00:33;;;;;;;1.70;1.50;;;18.70;44.70;;;;;;5053134;28;20196;-87
2022/05/01 02:02:59;;;;;;;1.60;1.50;;;18.60;44.60;;;;;;5019495;28;20173;-85
2022/05/01 02:05:26;;;;;;;1.52;1.42;;;18.70;44.40;;;;;;5036215;28;20225;-87
2022/05/01 02:07:53;;;;;;;2.08;1.50;;;18.60;44.60;;;;;;5053273;28;20187;-85
2022/05/01 02:10:23;;;;;;;1.80;1.50;;;18.70;44.60;;;;;;5054221;28;20146;-84
2022/05/01 02:12:49;;;;;;;1.88;1.45;;;18.70;44.60;;;;;;5019259;28;20225;-85
2022/05/01 02:15:15;;;;;;;1.95;1.60;;;18.60;44.50;;;;;;5053146;28;20189;-85
2022/05/01 02:17:42;;;;;;;1.40;1.30;;;18.60;44.60;;;;;;5036264;28;20614;-85
2022/05/01 02:20:08;;;;;;;1.85;1.65;;;18.60;44.60;;;;;;5036046;28;20617;-87
2022/05/01 02:22:35;;;;;;;1.60;1.50;;;18.60;44.70;;;;;;5053125;28;20637;-86
2022/05/01 02:25:07;;;;;;;2.28;1.52;;;18.50;44.70;;;;;;5052931;28;20316;-86
2022/05/01 02:27:33;;;;;;;1.48;1.38;;;18.60;44.70;;;;;;5020032;28;20264;-82
2022/05/01 02:29:59;;;;;;;1.65;1.55;;;18.60;44.60;;;;;;5053956;28;20165;-87
2022/05/01 02:32:29;;;;;;;1.80;1.58;;;18.60;44.70;;;;;;5052599;28;20170;-85
2022/05/01 02:35:04;;;;;;;2.47;1.52;;;18.60;44.80;;;;;;5018986;28;20190;-84
2022/05/01 02:37:30;;;;;;;2.88;1.50;;;18.60;44.70;;;;;;5035537;28;20268;-84
2022/05/01 02:39:56;;;;;;;1.85;1.40;;;18.60;44.70;;;;;;5053618;28;20185;-86
2022/05/01 02:42:25;;;;;;;2.30;1.40;;;18.60;44.60;;;;;;5052297;28;20324;-86
2022/05/01 02:44:55;;;;;;;1.50;1.40;;;18.60;44.70;;;;;;5035204;28;20197;-85
2022/05/01 02:47:26;;;;;;;2.75;1.70;;;18.60;44.80;;;;;;5034342;28;20629;-85
2022/05/01 02:49:56;;;;;;;1.50;1.40;;;18.60;44.80;;;;;;5018754;28;20630;-83
2022/05/01 02:52:22;;;;;;;1.90;1.52;;;18.60;44.80;;;;;;5018870;28;20177;-85
2022/05/01 02:54:48;;;;;;;1.52;1.40;;;18.60;44.90;;;;;;5053427;28;20180;-86
2022/05/01 02:57:14;;;;;;;2.50;1.60;;;18.60;44.80;;;;;;5035626;28;20614;-86
2022/05/01 02:59:40;;;;;;;1.50;1.40;;;18.60;44.80;;;;;;5053516;28;20165;-84
2022/05/01 03:02:06;;;;;;;2.75;1.77;;;18.60;44.90;;;;;;5051944;28;20190;-85
2022/05/01 03:04:32;;;;;;;2.00;1.48;;;18.60;44.90;;;;;;5052087;28;20562;-84
2022/05/01 03:06:58;;;;;;;1.55;1.35;;;18.60;44.90;;;;;;5035283;28;20174;-85
2022/05/01 03:09:30;;;;;;;2.90;1.67;;;18.60;44.90;;;;;;5035511;28;20169;-85
2022/05/01 03:12:03;;;;;;;3.13;1.63;;;18.60;44.90;;;;;;5034811;28;20269;-86
2022/05/01 03:14:28;;;;;;;2.47;1.45;;;18.60;44.80;;;;;;5034751;28;20232;-82
2022/05/01 03:16:54;;;;;;;1.90;1.70;;;18.60;44.90;;;;;;5052107;28;20558;-86
2022/05/01 03:24:38;;;;;;;1.60;1.50;;;18.60;45.10;;;;;;5053060;28;20270;-85
2022/05/01 03:27:05;;;;;;;1.80;1.55;;;18.60;45.10;;;;;;5035254;28;20162;-85
2022/05/01 03:29:31;;;;;;;2.42;1.52;;;18.60;44.90;;;;;;5052237;28;20272;-83
2022/05/01 03:31:56;;;;;;;1.73;1.40;;;18.60;45.10;;;;;;5052952;28;20198;-82
2022/05/01 03:34:23;;;;;;;1.63;1.45;;;18.60;45.00;;;;;;5053201;28;20625;-82
2022/05/01 03:36:49;;;;;;;1.50;1.40;;;18.60;45.00;;;;;;5051992;28;20154;-86
2022/05/01 03:39:19;;;;;;;2.00;1.52;;;18.50;45.10;;;;;;5051981;28;20166;-84
2022/05/01 03:41:45;;;;;;;1.75;1.60;;;18.50;45.10;;;;;;5034569;28;20248;-84
2022/05/01 03:44:16;;;;;;;1.52;1.30;;;18.50;45.20;;;;;;5051651;28;20637;-84
2022/05/01 03:46:42;;;;;;;1.80;1.40;;;18.50;45.10;;;;;;5034469;28;20186;-85
2022/05/01 03:49:09;;;;;;;2.20;1.73;;;18.50;45.00;;;;;;5051777;28;20170;-86
2022/05/01 03:51:39;;;;;;;1.42;1.23;;;18.60;45.00;;;;;;5051773;28;20386;-85
2022/05/01 03:54:05;;;;;;;1.58;1.48;;;18.50;44.90;;;;;;5034470;28;20194;-85
2022/05/01 03:56:32;;;;;;;1.73;1.58;;;18.50;45.10;;;;;;5051575;28;20159;-86
2022/05/01 03:58:58;;;;;;;1.58;1.40;;;18.50;45.10;;;;;;5053382;28;20185;-84
2022/05/01 04:01:25;;;;;;;1.77;1.33;;;18.50;45.10;;;;;;5039005;28;20221;-84
2022/05/01 04:03:51;;;;;;;2.17;1.63;;;18.60;45.10;;;;;;5055161;28;20213;-84
2022/05/01 04:06:21;;;;;;;1.88;1.67;;;18.50;45.00;;;;;;5039088;28;20170;-83
2022/05/01 04:08:48;;;;;;;1.60;1.50;;;18.50;45.10;;;;;;5021630;28;20186;-84
2022/05/01 04:11:13;;;;;;;2.88;1.83;;;18.50;45.00;;;;;;5038670;28;20174;-86
2022/05/01 04:13:39;;;;;;;1.88;1.73;;;18.50;45.10;;;;;;5038949;28;20181;-86
2022/05/01 04:16:05;;;;;;;1.60;1.50;;;18.50;45.20;;;;;;5056587;28;20637;-84
2022/05/01 04:18:31;;;;;;;1.70;1.50;;;18.50;45.20;;;;;;5038614;28;20208;-85
2022/05/01 04:20:58;;;;;;;2.00;1.70;;;18.50;45.30;;;;;;5055053;28;20193;-84
2022/05/01 04:23:28;;;;;;;1.95;1.70;;;18.60;45.20;;;;;;5038566;28;20166;-87
2022/05/01 04:25:59;;;;;;;1.48;1.38;;;18.50;45.00;;;;;;5038159;28;20182;-83
2022/05/01 04:28:25;;;;;;;1.80;1.50;;;18.50;45.10;;;;;;5037935;28;20221;-84
2022/05/01 04:30:55;;;;;;;1.55;1.35;;;18.50;45.20;;;;;;5055008;28;20205;-86
2022/05/01 04:33:25;;;;;;;2.10;1.70;;;18.50;44.90;;;;;;5037809;28;20185;-86
2022/05/01 04:35:51;;;;;;;1.52;1.42;;;18.60;45.20;;;;;;5037761;28;20234;-85
2022/05/01 04:38:21;;;;;;;1.60;1.50;;;18.50;45.10;;;;;;5054733;28;20173;-83
2022/05/01 04:40:48;;;;;;;1.40;1.30;;;18.50;45.30;;;;;;5038137;28;20204;-85
2022/05/01 04:43:19;;;;;;;1.48;1.38;;;18.50;45.20;;;;;;5038033;28;20170;-87
2022/05/01 04:45:48;;;;;;;1.95;1.30;;;18.50;45.20;;;;;;5021111;28;20177;-85
2022/05/01 04:48:15;;;;;;;1.75;1.40;;;18.50;45.10;;;;;;5054553;28;20178;-87
2022/05/01 04:50:41;;;;;;;1.90;1.60;;;18.50;45.30;;;;;;5055128;28;20181;-84
2022/05/01 04:53:12;;;;;;;1.85;1.50;;;18.50;45.30;;;;;;5037736;28;20200;-85
2022/05/01 04:55:39;;;;;;;1.65;1.55;;;18.50;45.30;;;;;;5020918;28;20196;-85
2022/05/01 04:58:06;;;;;;;2.05;1.67;;;18.50;45.10;;;;;;5054629;28;20359;-83
2022/05/01 05:00:33;;;;;;;1.80;1.50;;;18.50;45.30;;;;;;5037560;28;20174;-83
2022/05/01 05:02:59;;;;;;;2.17;1.77;;;18.50;44.90;;;;;;5037967;28;20161;-85
2022/05/01 05:05:31;;;;;;;1.65;1.55;;;18.60;45.10;;;;;;5037217;28;20301;-84
2022/05/01 05:10:46;;;;;;;2.17;1.60;;;18.50;45.30;;;;;;5024440;28;20671;-85
2022/05/01 05:13:27;;;;;;;1.60;1.50;;;18.60;45.20;;;;;;5037429;28;20244;-86
2022/05/01 05:15:59;;;;;;;1.70;1.40;;;18.60;45.20;;;;;;5005437;28;20189;-85
2022/05/01 05:18:24;;;;;;;1.83;1.70;;;18.60;45.20;;;;;;5038400;28;20490;-85
2022/05/01 05:20:50;;;;;;;1.50;1.40;;;18.50;45.30;;;;;;5021130;28;20687;-85
2022/05/01 05:23:17;;;;;;;1.70;1.60;;;18.50;45.50;;;;;;5053898;28;20497;-84
2022/05/01 05:25:44;;;;;;;1.52;1.42;;;18.50;45.50;;;;;;5037504;28;20173;-86
2022/05/01 05:28:12;;;;;;;2.22;1.60;;;18.60;45.50;;;;;;5036785;28;20675;-84
2022/05/01 05:30:39;;;;;;;1.58;1.48;;;18.50;45.50;;;;;;5036534;28;20186;-85
2022/05/01 05:33:06;;;;;;;1.75;1.65;;;18.60;45.60;;;;;;5036077;28;20197;-83
2022/05/01 05:35:33;;;;;;;1.73;1.60;;;18.50;45.70;;;;;;5019787;28;20316;-84
2022/05/01 05:38:03;;;;;;;1.67;1.50;;;18.60;45.80;;;;;;5036317;28;20268;-85
2022/05/01 05:40:29;;;;;;;2.00;1.55;;;18.50;45.90;;;;;;5019757;28;20185;-84
2022/05/01 05:42:54;;;;;;;3.08;1.70;;;18.50;45.60;;;;;;5053442;28;20154;-85
2022/05/01 05:45:20;;;;;;;2.58;1.67;;;18.60;45.70;;;;;;5037080;28;20163;-83
2022/05/01 05:47:46;;;;;;;1.65;1.50;;;18.60;45.50;;;;;;5054944;28;20166;-83
2022/05/01 05:50:12;;;;;;;1.60;1.50;;;18.60;45.50;;;;;;5054692;28;20245;-83
2022/05/01 05:52:38;;;;;;;1.67;1.58;;;18.60;45.50;;;;;;5036720;28;20632;-84
2022/05/01 05:55:07;;;;;;;1.60;1.50;;;18.60;45.50;;;;;;5037215;28;20174;-83
2022/05/01 05:57:36;;;;;;;1.98;1.60;;;18.60;45.50;;;;;;5019700;28;20185;-88
2022/05/01 06:00:05;;;;;;;1.80;1.33;;;18.60;45.50;;;;;;5019518;28;20182;-84
2022/05/01 06:02:35;;;;;;;1.70;1.60;;;18.60;45.50;;;;;;5019416;28;20309;-82
2022/05/01 06:05:04;;;;;;;1.30;1.17;;;18.50;45.50;;;;;;5036092;28;20256;-83
2022/05/01 06:07:34;;;;;;;2.00;1.80;;;18.60;45.50;;;;;;5019461;28;20280;-86
2022/05/01 06:10:02;;;;;;;1.70;1.60;;;18.60;45.40;;;;;;5019531;28;20186;-84
2022/05/01 06:12:31;;;;;;;2.03;1.50;;;18.60;45.40;;;;;;5019362;28;20186;-86
2022/05/01 06:14:56;;;;;;;2.17;1.60;;;18.60;45.50;;;;;;5035941;28;20178;-86
2022/05/01 06:17:26;;;;;;;1.60;1.50;;;18.60;45.50;;;;;;5053684;28;20494;-85
2022/05/01 06:19:54;;;;;;;1.70;1.60;;;18.60;46.20;;;;;;5035786;28;20189;-85
2022/05/01 06:22:22;;;;;;;1.85;1.67;;;18.50;45.50;;;;;;5035583;28;20216;-86
2022/05/01 06:24:49;;;;;;;1.58;1.45;;;18.60;45.70;;;;;;5035630;28;20192;-86
2022/05/01 06:27:19;;;;;;;2.80;1.70;;;18.50;45.60;;;;;;5019033;28;20594;-89
2022/05/01 06:29:47;;;;;;;2.08;1.50;;;18.50;45.60;;;;;;5019294;28;20178;-85
2022/05/01 06:32:15;;;;;;;2.45;1.75;;;18.50;45.70;;;;;;5019083;28;20190;-89
2022/05/01 06:34:45;;;;;;;1.90;1.55;;;18.50;45.60;;;;;;5036202;28;20158;-84
2022/05/01 06:37:13;;;;;;;2.15;1.52;;;18.60;45.70;;;;;;5052861;28;20200;-89
2022/05/01 06:39:38;;;;;;;1.92;1.50;;;18.50;45.70;;;;;;5035220;28;20193;-86
2022/05/01 06:42:06;;;;;;;1.45;1.30;;;18.50;45.60;;;;;;5052415;28;20190;-87
2022/05/01 06:44:32;;;;;;;1.88;1.50;;;18.50;45.70;;;;;;5035996;28;20155;-83
2022/05/01 06:46:57;;;;;;;1.50;1.40;;;18.50;45.60;;;;;;5052261;28;20154;-85
2022/05/01 06:49:23;;;;;;;1.80;1.70;;;18.50;45.60;;;;;;5052670;28;20170;-86
2022/05/01 06:51:49;;;;;;;1.58;1.48;;;18.50;45.70;;;;;;5052345;28;20194;-86
2022/05/01 06:54:14;;;;;;;1.55;1.45;;;18.50;45.60;;;;;;5035570;28;20626;-88
2022/05/01 06:56:41;;;;;;;1.98;1.40;;;18.50;45.60;;;;;;5035436;28;20177;-84
2022/05/01 06:59:07;;;;;;;2.28;1.55;;;18.50;45.40;;;;;;5019196;28;20590;-83
2022/05/01 07:01:32;;;;;;;2.03;1.45;;;18.60;45.30;;;;;;5035709;28;20217;-85
2022/05/01 07:04:00;;;;;;;1.60;1.30;;;18.60;45.50;;;;;;5052256;28;20209;-83
2022/05/01 07:06:27;;;;;;;1.92;1.50;;;18.60;45.30;;;;;;5034735;28;20204;-84
2022/05/01 07:08:54;;;;;;;2.35;1.40;;;18.60;45.00;;;;;;5034598;28;20523;-84
2022/05/01 07:11:22;;;;;;;1.60;1.40;;;18.70;45.10;;;;;;5001700;28;20182;-84
2022/05/01 07:13:47;;;;;;;1.77;1.30;;;18.70;44.80;;;;;;5034711;28;20268;-83
2022/05/01 07:16:14;;;;;;;1.83;1.65;;;18.70;45.00;;;;;;5053748;28;20271;-84
2022/05/01 07:18:40;;;;;;;1.60;1.50;;;18.70;44.90;;;;;;5018171;28;20185;-82
2022/05/01 07:21:06;;;;;;;1.75;1.40;;;18.80;44.60;;;;;;5018716;28;20287;-85
2022/05/01 07:23:31;;;;;;;2.08;1.52;;;18.80;44.60;;;;;;5018820;28;20185;-84
2022/05/01 07:25:57;;;;;;;1.55;1.23;;;18.80;44.40;;;;;;5035258;28;20166;-84
2022/05/01 07:28:23;;;;;;;1.70;1.35;;;18.90;44.40;;;;;;5035613;28;20154;-86
2022/05/01 07:30:48;;;;;;;2.00;1.55;;;18.80;44.60;;;;;;5018935;28;20571;-84
2022/05/01 07:33:14;;;;;;;1.33;1.23;;;18.80;44.60;;;;;;5019052;28;20174;-86
2022/05/01 07:35:40;;;;;;;1.65;1.20;;;18.80;44.40;;;;;;5057354;28;20612;-86
2022/05/01 07:38:05;;;;;;;1.80;1.40;;;18.90;44.80;;;;;;5057022;28;20193;-83
2022/05/01 07:40:31;;;;;;;1.70;1.35;;;18.80;44.40;;;;;;5056993;28;20165;-85
2022/05/01 07:42:57;;;;;;;1.52;1.42;;;18.90;44.40;;;;;;5055742;28;20154;-84
2022/05/01 07:45:23;;;;;;;1.88;1.50;;;18.90;44.70;;;;;;5056852;28;20153;-84
2022/05/01 07:47:49;;;;;;;1.50;1.40;;;18.90;44.10;;;;;;5038983;28;20540;-84
2022/05/01 07:50:15;;;;;;;1.50;1.40;;;18.90;44.20;;;;;;5039047;28;20162;-85
2022/05/01 07:52:40;;;;;;;1.65;1.40;;;19.00;44.00;;;;;;5056870;28;20174;-86
2022/05/01 07:55:07;;;;;;;1.60;1.30;;;18.90;44.30;;;;;;5038844;28;20181;-83
2022/05/01 07:57:33;;;;;;;1.65;1.55;;;18.90;44.30;;;;;;5038960;28;20613;-83
2022/05/01 07:59:59;;;;;;;1.60;1.50;;;18.90;44.20;;;;;;5055714;28;20177;-84
2022/05/01 08:02:32;;;;;;;2.90;1.60;;;18.90;44.30;;;;;;5038958;28;20240;-84
2022/05/01 08:04:58;;;;;;;1.83;1.63;;;18.90;44.40;;;;;;5055067;28;20253;-83
2022/05/01 08:07:24;;;;;;;1.40;1.30;;;18.90;44.40;;;;;;5056786;28;20626;-86
2022/05/01 08:09:55;;;;;;;2.28;1.40;;;18.90;44.40;;;;;;5038551;28;20170;-82
2022/05/01 08:12:20;;;;;;;1.90;1.40;;;18.90;44.30;;;;;;5038185;28;20174;-83
2022/05/01 08:14:46;;;;;;;2.10;1.40;;;18.90;44.20;;;;;;5055196;28;20192;-86
2022/05/01 08:17:16;;;;;;;1.58;1.42;;;18.90;44.00;;;;;;5055200;28;20155;-89
2022/05/01 08:22:20;;;;;;;1.70;1.60;;;18.90;43.90;;;;;;5055155;28;20181;-85
2022/05/01 08:24:46;;;;;;;1.17;1.05;;;19.00;44.20;;;;;;5039319;28;20702;-87
2022/05/01 08:27:12;;;;;;;1.92;1.40;;;18.90;43.90;;;;;;5038848;28;20206;-85
2022/05/01 08:29:41;;;;;;;1.50;1.40;;;19.00;44.20;;;;;;5055396;28;20157;-86
2022/05/01 08:32:07;;;;;;;1.55;1.42;;;18.90;44.10;;;;;;5038744;28;20261;-86
2022/05/01 08:34:33;;;;;;;1.60;1.50;;;19.00;44.00;;;;;;5055917;28;20213;-88
2022/05/01 08:36:59;;;;;;;1.40;1.30;;;18.90;44.00;;;;;;5038776;28;20235;-85
2022/05/01 08:39:25;;;;;;;1.50;1.35;;;19.00;44.10;;;;;;5056044;28;20531;-87
2022/05/01 08:41:51;;;;;;;1.40;1.30;;;19.00;44.00;;;;;;5039468;28;20644;-87
2022/05/01 08:44:25;;;;;;;1.60;1.50;;;18.90;43.80;;;;;;5039281;28;20178;-84
2022/05/01 08:47:18;;;;;;;1.33;1.20;;;18.90;44.10;;;;;;5054746;28;20688;-86
2022/05/01 08:49:44;;;;;;;1.40;1.30;;;19.00;43.80;;;;;;5026041;28;20251;-87
2022/05/01 08:52:10;;;;;;;1.33;1.23;;;19.00;43.90;;;;;;5054747;28;20169;-86
2022/05/01 08:54:36;;;;;;;1.60;1.50;;;19.00;43.70;;;;;;5056065;28;20159;-83
2022/05/01 08:57:02;;;;;;;1.20;1.10;;;19.00;43.90;;;;;;5059294;28;20165;-86
2022/05/01 08:59:30;;;;;;;2.72;1.35;;;19.00;43.70;;;;;;5056526;28;20186;-84
2022/05/01 09:02:00;;;;;;;3.13;2.03;;;18.90;44.20;;;;;;5040541;28;20294;-83
2022/05/01 09:04:26;;;;;;;2.92;1.50;;;18.90;44.30;;;;;;5006251;28;20317;-85
2022/05/01 09:06:52;;;;;;;1.40;1.30;;;18.90;44.50;;;;;;5039905;28;20190;-85
2022/05/01 09:09:19;;;;;;;1.73;1.48;;;18.90;44.20;;;;;;5056227;28;20154;-86
2022/05/01 09:14:28;;;;;;;1.60;1.40;;;18.90;44.10;;;;;;5055997;28;20164;-86
2022/05/01 09:17:17;;;;;;;1.70;1.60;;;18.90;43.40;;;;;;5038394;28;20251;-86
2022/05/01 09:19:44;;;;;;;2.17;1.20;;;19.00;44.20;;;;;;5055845;28;20173;-87
2022/05/01 09:22:11;;;;;;;2.13;1.17;;;18.90;43.90;;;;;;5037843;28;20561;-83
2022/05/01 09:24:37;;;;;;;1.10;1.10;;;18.90;44.00;;;;;;5053834;28;20173;-86
2022/05/01 09:27:24;;;;;;;1.38;1.27;;;19.00;43.20;;;;;;5054111;28;20162;-87
2022/05/01 09:29:50;;;;;;;1.50;1.40;;;19.10;43.40;;;;;;5023305;28;20174;-86
2022/05/01 09:32:16;;;;;;;2.50;1.30;;;19.10;43.30;;;;;;5037599;28;20177;-83
2022/05/01 09:34:43;;;;;;;1.42;1.33;;;19.00;44.20;;;;;;5037340;28;20528;-83
2022/05/01 09:37:24;;;;;;;3.50;1.25;;;18.90;44.30;;;;;;5055309;28;20158;-85
2022/05/01 09:39:50;;;;;;;1.38;1.15;;;18.80;44.20;;;;;;5054881;28;20185;-83
2022/05/01 09:42:21;;;;;;;1.25;1.15;;;18.90;44.10;;;;;;5053301;28;20178;-87
2022/05/01 09:45:07;;;;;;;1.23;1.13;;;18.90;44.50;;;;;;5020350;28;20213;-84
2022/05/01 09:47:38;;;;;;;1.27;1.17;;;19.00;44.00;;;;;;5054143;28;20162;-86
2022/05/01 09:50:05;;;;;;;2.85;1.38;;;19.00;44.00;;;;;;5055471;28;20204;-86
2022/05/01 09:53:00;;;;;;;2.03;1.05;;;18.90;43.20;;;;;;5054523;28;20158;-84
2022/05/01 09:55:27;;;;;;;1.40;1.30;;;19.00;44.00;;;;;;5055063;28;20184;-86
2022/05/01 09:58:12;;;;;;;1.30;1.20;;;19.00;43.50;;;;;;5052883;28;20166;-86
2022/05/01 10:00:44;;;;;;;1.30;1.13;;;19.00;43.50;;;;;;5054063;28;20162;-87
2022/05/01 10:03:30;;;;;;;1.83;1.35;;;19.00;43.60;;;;;;5036741;28;20225;-85
2022/05/01 10:06:01;;;;;;;1.25;1.15;;;19.10;44.20;;;;;;5037601;28;20164;-87
2022/05/01 10:08:31;;;;;;;3.58;1.50;;;19.00;43.90;;;;;;5037703;28;20181;-85
2022/05/01 10:10:58;;;;;;;1.38;1.27;;;19.00;43.90;;;;;;5023037;28;20186;-84
2022/05/01 10:13:28;;;;;;;1.20;1.08;;;19.10;43.40;;;;;;5039258;28;20162;-86
2022/05/01 10:15:54;;;;;;;1.30;1.20;;;19.10;43.60;;;;;;5038013;28;20273;-85
2022/05/01 10:18:24;;;;;;;4.95;1.40;;;19.10;43.80;;;;;;5039222;28;20170;-87
2022/05/01 10:20:54;;;;;;;1.30;1.13;;;19.10;43.80;;;;;;5037610;28;20296;-86
2022/05/01 10:23:20;;;;;;;1.45;1.10;;;19.10;44.10;;;;;;5038315;28;20181;-83
2022/05/01 10:26:10;;;;;;;1.42;1.23;;;19.00;43.80;;;;;;5056078;28;20185;-84
2022/05/01 10:28:53;;;;;;;1.42;1.30;;;19.10;43.50;;;;;;5041696;28;20728;-86
2022/05/01 10:34:50;;;;;;;1.58;1.40;;;19.10;43.40;;;;;;5041554;28;20223;-83
2022/05/01 10:37:50;;;;;;;3.03;1.13;;;19.10;43.80;;;;;;5041193;28;20193;-85
2022/05/01 10:40:16;;;;;;;2.08;1.17;;;19.10;43.60;;;;;;5056817;28;20220;-85
2022/05/01 10:42:45;;;;;;;2.28;1.10;;;19.10;43.20;;;;;;5055605;28;20652;-83
2022/05/01 10:45:41;;;;;;;1.60;1.38;;;19.10;43.40;;;;;;5056822;28;20154;-85
2022/05/01 10:48:15;;;;;;;1.42;1.30;;;19.10;43.90;;;;;;5056077;28;20219;-86
2022/05/01 10:50:41;;;;;;;1.50;1.08;;;19.20;43.90;;;;;;5038325;28;20182;-84
2022/05/01 10:53:08;;;;;;;1.38;1.27;;;19.20;43.90;;;;;;5056651;28;20269;-83
2022/05/01 10:55:43;;;;;;;1.38;1.27;;;19.20;43.90;;;;;;5038087;28;20162;-85
2022/05/01 10:58:24;;;;;;;3.42;1.20;;;19.20;43.40;;;;;;5037822;28;20176;-85
2022/05/01 11:00:55;;;;;;;1.55;1.42;;;19.30;43.90;;;;;;5040586;28;20193;-83
2022/05/01 11:03:24;;;;;;;1.63;1.30;;;19.20;43.90;;;;;;5041184;28;20577;-83
2022/05/01 11:06:08;;;;;;;1.60;1.48;;;19.20;43.30;;;;;;5058344;28;20150;-86
2022/05/01 11:08:36;;;;;;;2.10;1.42;;;19.30;43.20;;;;;;5025728;28;20178;-84
2022/05/01 11:11:05;;;;;;;1.90;1.10;;;19.30;43.50;;;;;;5058430;28;20150;-86
2022/05/01 11:13:38;;;;;;;5.00;1.70;;;19.20;43.50;;;;;;5041096;28;20165;-84
2022/05/01 11:16:05;;;;;;;1.38;1.27;;;19.20;44.10;;;;;;5022152;28;20193;-84
2022/05/01 11:18:58;;;;;;;2.42;1.38;;;19.20;43.60;;;;;;5056789;28;20182;-83
2022/05/01 11:21:36;;;;;;;1.63;1.35;;;19.20;43.60;;;;;;5025024;28;20218;-86
2022/05/01 11:24:04;;;;;;;1.33;1.20;;;19.20;43.50;;;;;;5052708;28;20146;-87
2022/05/01 11:26:35;;;;;;;1.85;1.42;;;19.30;43.20;;;;;;5054232;28;20165;-85
2022/05/01 11:29:19;;;;;;;1.40;1.30;;;19.20;43.30;;;;;;5018888;28;20186;-83
2022/05/01 11:31:46;;;;;;;1.77;1.10;;;19.20;43.60;;;;;;5035497;28;20265;-84
2022/05/01 11:34:33;;;;;;;1.35;1.25;;;19.20;43.80;;;;;;5036295;28;20660;-85
2022/05/01 11:37:05;;;;;;;1.40;1.27;;;19.20;43.50;;;;;;5036129;28;20169;-84
2022/05/01 11:40:02;;;;;;;1.30;1.20;;;19.20;43.70;;;;;;5035145;28;20556;-86
2022/05/01 11:42:41;;;;;;;3.55;1.50;;;19.20;43.60;;;;;;5035375;28;20239;-84
2022/05/01 11:45:18;;;;;;;1.30;1.20;;;19.30;43.40;;;;;;5035912;28;20181;-86
2022/05/01 11:47:50;;;;;;;1.45;1.27;;;19.30;43.70;;;;;;5035893;28;20215;-85
2022/05/01 11:50:21;;;;;;;1.15;1.05;;;19.30;43.10;;;;;;5018510;28;20190;-83
2022/05/01 11:52:53;;;;;;;1.58;1.20;;;19.30;43.40;;;;;;5035077;28;20186;-84
2022/05/01 12:02:24;;;;;;;1.52;1.10;;;19.40;43.40;;;;;;5019556;28;20517;-84
2022/05/01 12:03:50;;;;;;;2.53;1.50;;;19.30;43.30;;;;;;5040620;28;20283;-83
2022/05/01 12:06:26;;;;;;;1.75;1.42;;;19.40;43.30;;;;;;5027134;28;20205;-86
2022/05/01 12:08:56;;;;;;;2.33;1.30;;;19.40;43.10;;;;;;5040394;28;20181;-84
2022/05/01 12:11:30;;;;;;;5.05;1.60;;;19.40;42.80;;;;;;5037174;28;20186;-85
2022/05/01 12:14:09;;;;;;;24.80;2.70;;;19.40;42.60;;;;;;5040455;28;20547;-83
2022/05/01 12:16:42;;;;;;;19.05;2.50;;;19.40;43.10;;;;;;5041982;28;20264;-84
2022/05/01 12:19:08;;;;;;;32.15;3.38;;;19.40;42.90;;;;;;5040279;28;20247;-84
2022/05/01 12:21:36;;;;;;;20.50;2.58;;;19.40;43.60;;;;;;5041028;28;20190;-86
2022/05/01 12:24:09;;;;;;;16.13;2.30;;;19.40;42.90;;;;;;5040541;28;20316;-85
2022/05/01 12:26:38;;;;;;;13.00;2.53;;;19.50;42.60;;;;;;5025180;28;20232;-86
2022/05/01 12:29:08;;;;;;;29.30;2.63;;;19.50;42.60;;;;;;5027062;28;20162;-85
2022/05/01 12:31:54;;;;;;;10.73;2.20;;;19.50;42.60;;;;;;5060947;28;20150;-84
2022/05/01 12:34:23;;;;;;;8.77;1.80;;;19.50;42.60;;;;;;5058440;28;20169;-86
2022/05/01 12:36:53;;;;;;;11.07;1.90;;;19.50;42.30;;;;;;5040184;28;20177;-86
2022/05/01 12:39:22;;;;;;;4.95;1.30;;;19.50;43.00;;;;;;5039065;28;20170;-86
2022/05/01 12:45:17;;;;;;;6.57;1.60;;;19.50;43.10;;;;;;5057079;28;20153;-85
2022/05/01 12:47:48;;;;;;;8.18;1.73;;;19.50;43.00;;;;;;5039286;28;20195;-86
2022/05/01 12:50:27;;;;;;;6.18;1.70;;;19.40;43.30;;;;;;5039167;28;20182;-87
2022/05/01 12:53:02;;;;;;;6.00;1.63;;;19.50;42.90;;;;;;5044325;28;20170;-87
2022/05/01 12:55:32;;;;;;;8.52;1.38;;;19.50;42.40;;;;;;5056649;28;20510;-85
2022/05/01 12:57:59;;;;;;;7.53;1.73;;;19.50;42.70;;;;;;5056789;28;20538;-85
2022/05/01 13:00:38;;;;;;;11.73;1.60;;;19.50;42.60;;;;;;5058064;28;20169;-82
2022/05/01 13:03:24;;;;;;;14.43;2.00;;;19.50;42.60;;;;;;5040738;28;20609;-87
2022/05/01 13:06:09;;;;;;;10.30;2.00;;;19.50;43.40;;;;;;5060711;28;20162;-83
2022/05/01 13:08:46;;;;;;;9.65;1.85;;;19.50;43.50;;;;;;5043434;28;20177;-84
2022/05/01 13:11:23;;;;;;;10.13;1.80;;;19.40;44.10;;;;;;5058404;28;20203;-85
2022/05/01 13:13:56;;;;;;;10.48;1.98;;;19.40;43.30;;;;;;5042272;28;20177;-84
2022/05/01 13:16:40;;;;;;;9.77;2.50;;;19.40;44.10;;;;;;5039491;28;20192;-90
2022/05/01 13:19:13;;;;;;;7.63;1.80;;;19.50;43.40;;;;;;5039332;28;20624;-87
2022/05/01 13:21:49;;;;;;;7.75;1.98;;;19.50;43.30;;;;;;5039758;28;20327;-90
2022/05/01 13:24:32;;;;;;;12.65;2.38;;;19.50;42.50;;;;;;5040075;28;20154;-85
2022/05/01 13:27:01;;;;;;;5.93;1.60;;;19.40;43.70;;;;;;5027600;28;20158;-83
2022/05/01 13:29:27;;;;;;;13.45;2.00;;;19.40;43.80;;;;;;5039534;28;20173;-86